sensor_id;sensor_type;location;lat;lon;timestamp;P1;durP1;ratioP1;P2;durP2;ratioP2
26702;SDS011;14316;51.074;3.704;2022-08-18T00:04:34;112.25;;;92.30;;
26702;SDS011;14316;51.074;3.704;2022-08-18T00:07:06;114.70;;;91.05;;
26702;SDS011;14316;51.074;3.704;2022-08-18T00:09:34;105.78;;;87.68;;
26702;SDS011;14316;51.074;3.704;2022-08-18T00:12:02;96.70;;;83.40;;
26702;SDS011;14316;51.074;3.704;2022-08-18T00:16:59;102.47;;;84.72;;
26702;SDS011;14316;51.074;3.704;2022-08-18T00:19:25;101.82;;;85.80;;
26702;SDS011;14316;51.074;3.704;2022-08-18T00:21:51;99.03;;;84.93;;
26702;SDS011;14316;51.074;3.704;2022-08-18T00:24:17;103.20;;;85.03;;
26702;SDS011;14316;51.074;3.704;2022-08-18T00:26:43;107.07;;;87.47;;
26702;SDS011;14316;51.074;3.704;2022-08-18T00:29:08;110.35;;;88.20;;
26702;SDS011;14316;51.074;3.704;2022-08-18T00:31:34;114.22;;;91.07;;
26702;SDS011;14316;51.074;3.704;2022-08-18T00:34:00;124.60;;;104.65;;
26702;SDS011;14316;51.074;3.704;2022-08-18T00:36:26;114.65;;;90.70;;
26702;SDS011;14316;51.074;3.704;2022-08-18T00:38:52;121.65;;;93.47;;
26702;SDS011;14316;51.074;3.704;2022-08-18T00:41:19;116.50;;;92.18;;
26702;SDS011;14316;51.074;3.704;2022-08-18T00:43:47;108.07;;;88.20;;
26702;SDS011;14316;51.074;3.704;2022-08-18T00:46:16;112.63;;;88.22;;
26702;SDS011;14316;51.074;3.704;2022-08-18T00:48:44;107.13;;;87.90;;
26702;SDS011;14316;51.074;3.704;2022-08-18T00:51:11;107.32;;;86.10;;
26702;SDS011;14316;51.074;3.704;2022-08-18T00:56:50;109.90;;;87.32;;
26702;SDS011;14316;51.074;3.704;2022-08-18T01:02:05;120.30;;;88.57;;
26702;SDS011;14316;51.074;3.704;2022-08-18T01:07:09;117.00;;;91.35;;
26702;SDS011;14316;51.074;3.704;2022-08-18T01:09:44;118.22;;;89.97;;
26702;SDS011;14316;51.074;3.704;2022-08-18T01:12:15;117.95;;;89.35;;
26702;SDS011;14316;51.074;3.704;2022-08-18T01:14:41;113.85;;;89.68;;
26702;SDS011;14316;51.074;3.704;2022-08-18T01:17:08;120.55;;;89.13;;
26702;SDS011;14316;51.074;3.704;2022-08-18T01:19:52;112.93;;;87.15;;
26702;SDS011;14316;51.074;3.704;2022-08-18T01:25:15;111.13;;;85.97;;
26702;SDS011;14316;51.074;3.704;2022-08-18T01:28:01;107.70;;;82.85;;
26702;SDS011;14316;51.074;3.704;2022-08-18T01:30:29;112.13;;;88.22;;
26702;SDS011;14316;51.074;3.704;2022-08-18T01:32:55;103.05;;;83.72;;
26702;SDS011;14316;51.074;3.704;2022-08-18T01:35:23;107.55;;;83.38;;
26702;SDS011;14316;51.074;3.704;2022-08-18T01:37:51;99.72;;;82.07;;
26702;SDS011;14316;51.074;3.704;2022-08-18T01:40:19;98.22;;;79.30;;
26702;SDS011;14316;51.074;3.704;2022-08-18T01:42:47;93.53;;;78.38;;
26702;SDS011;14316;51.074;3.704;2022-08-18T01:45:14;92.43;;;76.20;;
26702;SDS011;14316;51.074;3.704;2022-08-18T01:47:41;92.70;;;76.63;;
26702;SDS011;14316;51.074;3.704;2022-08-18T01:50:08;100.35;;;79.55;;
26702;SDS011;14316;51.074;3.704;2022-08-18T01:52:38;103.63;;;80.32;;
26702;SDS011;14316;51.074;3.704;2022-08-18T01:55:04;103.10;;;80.75;;
26702;SDS011;14316;51.074;3.704;2022-08-18T01:57:31;96.93;;;79.68;;
26702;SDS011;14316;51.074;3.704;2022-08-18T01:59:59;102.28;;;77.90;;
26702;SDS011;14316;51.074;3.704;2022-08-18T02:02:26;101.57;;;79.68;;
26702;SDS011;14316;51.074;3.704;2022-08-18T02:04:58;97.37;;;75.70;;
26702;SDS011;14316;51.074;3.704;2022-08-18T02:07:27;99.25;;;77.55;;
26702;SDS011;14316;51.074;3.704;2022-08-18T02:09:52;99.63;;;78.72;;
26702;SDS011;14316;51.074;3.704;2022-08-18T02:12:18;100.20;;;78.47;;
26702;SDS011;14316;51.074;3.704;2022-08-18T02:14:44;89.22;;;76.07;;
26702;SDS011;14316;51.074;3.704;2022-08-18T02:17:11;93.20;;;76.50;;
26702;SDS011;14316;51.074;3.704;2022-08-18T02:19:40;93.63;;;76.25;;
26702;SDS011;14316;51.074;3.704;2022-08-18T02:22:11;89.63;;;75.10;;
26702;SDS011;14316;51.074;3.704;2022-08-18T02:24:39;93.25;;;75.43;;
26702;SDS011;14316;51.074;3.704;2022-08-18T02:27:06;89.32;;;75.25;;
26702;SDS011;14316;51.074;3.704;2022-08-18T02:29:33;84.10;;;72.93;;
26702;SDS011;14316;51.074;3.704;2022-08-18T02:31:59;86.95;;;74.55;;
26702;SDS011;14316;51.074;3.704;2022-08-18T02:34:24;98.15;;;76.47;;
26702;SDS011;14316;51.074;3.704;2022-08-18T02:36:50;92.70;;;75.80;;
26702;SDS011;14316;51.074;3.704;2022-08-18T02:39:16;92.20;;;75.07;;
26702;SDS011;14316;51.074;3.704;2022-08-18T02:41:42;87.20;;;74.60;;
26702;SDS011;14316;51.074;3.704;2022-08-18T02:44:08;87.45;;;73.40;;
26702;SDS011;14316;51.074;3.704;2022-08-18T02:46:35;85.10;;;72.43;;
26702;SDS011;14316;51.074;3.704;2022-08-18T02:49:02;86.78;;;72.75;;
26702;SDS011;14316;51.074;3.704;2022-08-18T02:51:29;81.68;;;70.43;;
26702;SDS011;14316;51.074;3.704;2022-08-18T02:53:56;78.30;;;68.45;;
26702;SDS011;14316;51.074;3.704;2022-08-18T02:56:23;78.72;;;68.25;;
26702;SDS011;14316;51.074;3.704;2022-08-18T02:58:54;82.18;;;68.82;;
26702;SDS011;14316;51.074;3.704;2022-08-18T03:01:26;79.15;;;68.85;;
26702;SDS011;14316;51.074;3.704;2022-08-18T03:03:55;81.60;;;68.15;;
26702;SDS011;14316;51.074;3.704;2022-08-18T03:06:23;86.82;;;67.68;;
26702;SDS011;14316;51.074;3.704;2022-08-18T03:08:50;90.65;;;65.95;;
26702;SDS011;14316;51.074;3.704;2022-08-18T03:11:18;88.72;;;63.85;;
26702;SDS011;14316;51.074;3.704;2022-08-18T03:13:45;116.43;;;60.20;;
26702;SDS011;14316;51.074;3.704;2022-08-18T03:16:12;98.32;;;63.28;;
26702;SDS011;14316;51.074;3.704;2022-08-18T03:18:40;95.30;;;65.68;;
26702;SDS011;14316;51.074;3.704;2022-08-18T03:21:14;69.35;;;61.10;;
26702;SDS011;14316;51.074;3.704;2022-08-18T03:23:42;79.10;;;63.55;;
26702;SDS011;14316;51.074;3.704;2022-08-18T03:26:09;67.78;;;60.78;;
26702;SDS011;14316;51.074;3.704;2022-08-18T03:28:36;65.80;;;58.72;;
26702;SDS011;14316;51.074;3.704;2022-08-18T03:31:05;60.20;;;54.38;;
26702;SDS011;14316;51.074;3.704;2022-08-18T03:33:31;61.30;;;55.20;;
26702;SDS011;14316;51.074;3.704;2022-08-18T03:36:30;62.45;;;56.17;;
26702;SDS011;14316;51.074;3.704;2022-08-18T03:38:51;60.72;;;54.58;;
26702;SDS011;14316;51.074;3.704;2022-08-18T03:41:18;61.15;;;55.05;;
26702;SDS011;14316;51.074;3.704;2022-08-18T03:43:47;59.45;;;53.45;;
26702;SDS011;14316;51.074;3.704;2022-08-18T03:46:14;60.47;;;54.20;;
26702;SDS011;14316;51.074;3.704;2022-08-18T03:48:41;59.38;;;53.58;;
26702;SDS011;14316;51.074;3.704;2022-08-18T03:51:12;58.35;;;52.75;;
26702;SDS011;14316;51.074;3.704;2022-08-18T03:53:40;56.47;;;50.92;;
26702;SDS011;14316;51.074;3.704;2022-08-18T03:56:06;56.08;;;50.40;;
26702;SDS011;14316;51.074;3.704;2022-08-18T03:58:39;54.92;;;49.42;;
26702;SDS011;14316;51.074;3.704;2022-08-18T04:01:06;56.28;;;50.50;;
26702;SDS011;14316;51.074;3.704;2022-08-18T04:03:34;57.75;;;51.75;;
26702;SDS011;14316;51.074;3.704;2022-08-18T04:06:00;68.88;;;53.50;;
26702;SDS011;14316;51.074;3.704;2022-08-18T04:08:26;57.55;;;51.75;;
26702;SDS011;14316;51.074;3.704;2022-08-18T04:10:52;71.28;;;52.92;;
26702;SDS011;14316;51.074;3.704;2022-08-18T04:13:18;58.28;;;52.30;;
26702;SDS011;14316;51.074;3.704;2022-08-18T04:15:43;59.40;;;52.90;;
26702;SDS011;14316;51.074;3.704;2022-08-18T04:18:09;64.95;;;52.90;;
26702;SDS011;14316;51.074;3.704;2022-08-18T04:20:36;59.90;;;53.10;;
26702;SDS011;14316;51.074;3.704;2022-08-18T04:23:02;68.68;;;51.15;;
26702;SDS011;14316;51.074;3.704;2022-08-18T04:25:28;93.25;;;54.63;;
26702;SDS011;14316;51.074;3.704;2022-08-18T04:27:54;93.70;;;55.85;;
26702;SDS011;14316;51.074;3.704;2022-08-18T04:30:22;136.68;;;57.28;;
26702;SDS011;14316;51.074;3.704;2022-08-18T04:32:48;91.55;;;60.33;;
26702;SDS011;14316;51.074;3.704;2022-08-18T04:35:15;172.82;;;62.20;;
26702;SDS011;14316;51.074;3.704;2022-08-18T04:37:41;78.55;;;62.45;;
26702;SDS011;14316;51.074;3.704;2022-08-18T04:40:08;107.60;;;60.95;;
26702;SDS011;14316;51.074;3.704;2022-08-18T04:42:34;95.65;;;59.58;;
26702;SDS011;14316;51.074;3.704;2022-08-18T04:45:00;92.75;;;61.85;;
26702;SDS011;14316;51.074;3.704;2022-08-18T04:47:26;101.57;;;60.15;;
26702;SDS011;14316;51.074;3.704;2022-08-18T04:49:51;95.47;;;59.17;;
26702;SDS011;14316;51.074;3.704;2022-08-18T04:52:17;79.63;;;55.95;;
26702;SDS011;14316;51.074;3.704;2022-08-18T04:55:01;66.90;;;57.88;;
26702;SDS011;14316;51.074;3.704;2022-08-18T04:57:28;85.35;;;57.17;;
26702;SDS011;14316;51.074;3.704;2022-08-18T04:59:57;87.68;;;58.83;;
26702;SDS011;14316;51.074;3.704;2022-08-18T05:02:23;85.55;;;57.03;;
26702;SDS011;14316;51.074;3.704;2022-08-18T05:04:48;104.07;;;59.67;;
26702;SDS011;14316;51.074;3.704;2022-08-18T05:07:15;66.47;;;52.47;;
26702;SDS011;14316;51.074;3.704;2022-08-18T05:09:45;116.40;;;58.08;;
26702;SDS011;14316;51.074;3.704;2022-08-18T05:12:12;69.80;;;58.10;;
26702;SDS011;14316;51.074;3.704;2022-08-18T05:14:39;72.47;;;56.28;;
26702;SDS011;14316;51.074;3.704;2022-08-18T05:17:06;127.20;;;57.35;;
26702;SDS011;14316;51.074;3.704;2022-08-18T05:19:32;76.75;;;56.50;;
26702;SDS011;14316;51.074;3.704;2022-08-18T05:22:00;61.20;;;54.55;;
26702;SDS011;14316;51.074;3.704;2022-08-18T05:24:26;62.10;;;55.40;;
26702;SDS011;14316;51.074;3.704;2022-08-18T05:26:53;71.28;;;55.83;;
26702;SDS011;14316;51.074;3.704;2022-08-18T05:29:20;64.15;;;57.00;;
26702;SDS011;14316;51.074;3.704;2022-08-18T05:31:47;68.10;;;58.67;;
26702;SDS011;14316;51.074;3.704;2022-08-18T05:34:14;68.68;;;58.30;;
26702;SDS011;14316;51.074;3.704;2022-08-18T05:39:26;65.40;;;58.30;;
26702;SDS011;14316;51.074;3.704;2022-08-18T05:42:05;68.65;;;58.67;;
26702;SDS011;14316;51.074;3.704;2022-08-18T05:44:32;65.72;;;56.72;;
26702;SDS011;14316;51.074;3.704;2022-08-18T05:47:12;63.50;;;56.75;;
26702;SDS011;14316;51.074;3.704;2022-08-18T05:49:42;60.03;;;53.83;;
26702;SDS011;14316;51.074;3.704;2022-08-18T05:52:12;58.70;;;52.25;;
26702;SDS011;14316;51.074;3.704;2022-08-18T05:55:00;58.38;;;52.42;;
26702;SDS011;14316;51.074;3.704;2022-08-18T05:57:53;57.88;;;51.83;;
26702;SDS011;14316;51.074;3.704;2022-08-18T06:00:25;58.08;;;52.20;;
26702;SDS011;14316;51.074;3.704;2022-08-18T06:02:57;57.95;;;52.00;;
26702;SDS011;14316;51.074;3.704;2022-08-18T06:05:28;57.45;;;51.45;;
26702;SDS011;14316;51.074;3.704;2022-08-18T06:08:23;55.50;;;49.80;;
26702;SDS011;14316;51.074;3.704;2022-08-18T06:10:53;54.43;;;48.97;;
26702;SDS011;14316;51.074;3.704;2022-08-18T06:13:19;55.75;;;49.85;;
26702;SDS011;14316;51.074;3.704;2022-08-18T06:27:00;54.35;;;49.10;;
26702;SDS011;14316;51.074;3.704;2022-08-18T06:37:34;60.88;;;54.40;;
26702;SDS011;14316;51.074;3.704;2022-08-18T06:40:26;62.58;;;55.90;;
26702;SDS011;14316;51.074;3.704;2022-08-18T06:42:52;64.35;;;57.33;;
26702;SDS011;14316;51.074;3.704;2022-08-18T06:45:27;57.90;;;51.90;;
26702;SDS011;14316;51.074;3.704;2022-08-18T06:48:11;56.47;;;50.53;;
26702;SDS011;14316;51.074;3.704;2022-08-18T06:50:48;52.05;;;46.35;;
26702;SDS011;14316;51.074;3.704;2022-08-18T06:53:20;54.88;;;49.33;;
26702;SDS011;14316;51.074;3.704;2022-08-18T06:55:47;54.20;;;48.60;;
26702;SDS011;14316;51.074;3.704;2022-08-18T07:00:43;54.53;;;49.05;;
26702;SDS011;14316;51.074;3.704;2022-08-18T07:03:18;55.88;;;50.22;;
26702;SDS011;14316;51.074;3.704;2022-08-18T07:05:59;53.53;;;48.20;;
26702;SDS011;14316;51.074;3.704;2022-08-18T07:08:42;51.65;;;46.70;;
26702;SDS011;14316;51.074;3.704;2022-08-18T07:13:37;40.95;;;37.17;;
26702;SDS011;14316;51.074;3.704;2022-08-18T07:16:15;43.67;;;39.53;;
26702;SDS011;14316;51.074;3.704;2022-08-18T07:21:25;38.70;;;34.97;;
26702;SDS011;14316;51.074;3.704;2022-08-18T07:27:00;41.10;;;37.33;;
26702;SDS011;14316;51.074;3.704;2022-08-18T07:32:43;43.08;;;39.00;;
26702;SDS011;14316;51.074;3.704;2022-08-18T07:35:24;45.53;;;41.45;;
26702;SDS011;14316;51.074;3.704;2022-08-18T07:38:08;44.70;;;40.65;;
26702;SDS011;14316;51.074;3.704;2022-08-18T07:43:24;42.22;;;38.22;;
26702;SDS011;14316;51.074;3.704;2022-08-18T07:46:42;44.70;;;40.53;;
26702;SDS011;14316;51.074;3.704;2022-08-18T07:49:00;46.40;;;42.20;;
26702;SDS011;14316;51.074;3.704;2022-08-18T08:02:45;50.25;;;45.45;;
26702;SDS011;14316;51.074;3.704;2022-08-18T08:08:01;52.58;;;47.55;;
26702;SDS011;14316;51.074;3.704;2022-08-18T08:13:43;51.05;;;45.92;;
26702;SDS011;14316;51.074;3.704;2022-08-18T08:25:07;42.22;;;38.08;;
26702;SDS011;14316;51.074;3.704;2022-08-18T08:27:49;39.33;;;35.25;;
26702;SDS011;14316;51.074;3.704;2022-08-18T08:31:00;35.40;;;31.77;;
26702;SDS011;14316;51.074;3.704;2022-08-18T08:33:37;30.70;;;27.75;;
26702;SDS011;14316;51.074;3.704;2022-08-18T08:36:13;29.58;;;26.83;;
26702;SDS011;14316;51.074;3.704;2022-08-18T08:41:38;29.58;;;26.73;;
26702;SDS011;14316;51.074;3.704;2022-08-18T08:44:14;24.85;;;22.65;;
26702;SDS011;14316;51.074;3.704;2022-08-18T08:46:53;23.73;;;21.63;;
26702;SDS011;14316;51.074;3.704;2022-08-18T08:52:06;29.85;;;27.27;;
26702;SDS011;14316;51.074;3.704;2022-08-18T08:54:44;31.48;;;28.48;;
26702;SDS011;14316;51.074;3.704;2022-08-18T08:57:26;30.60;;;27.80;;
26702;SDS011;14316;51.074;3.704;2022-08-18T08:59:58;32.22;;;29.23;;
26702;SDS011;14316;51.074;3.704;2022-08-18T09:02:29;34.67;;;31.33;;
26702;SDS011;14316;51.074;3.704;2022-08-18T09:05:19;38.72;;;34.90;;
26702;SDS011;14316;51.074;3.704;2022-08-18T09:21:59;32.15;;;29.25;;
26702;SDS011;14316;51.074;3.704;2022-08-18T09:24:40;28.92;;;26.33;;
26702;SDS011;14316;51.074;3.704;2022-08-18T09:30:50;26.40;;;23.65;;
26702;SDS011;14316;51.074;3.704;2022-08-18T09:33:24;24.48;;;22.25;;
26702;SDS011;14316;51.074;3.704;2022-08-18T09:38:20;25.27;;;22.92;;
26702;SDS011;14316;51.074;3.704;2022-08-18T09:41:11;27.10;;;24.70;;
26702;SDS011;14316;51.074;3.704;2022-08-18T09:44:09;23.85;;;21.65;;
26702;SDS011;14316;51.074;3.704;2022-08-18T09:51:54;24.48;;;22.48;;
26702;SDS011;14316;51.074;3.704;2022-08-18T10:02:59;28.65;;;25.85;;
26702;SDS011;14316;51.074;3.704;2022-08-18T10:10:43;25.92;;;23.63;;
26702;SDS011;14316;51.074;3.704;2022-08-18T10:16:30;18.02;;;16.48;;
26702;SDS011;14316;51.074;3.704;2022-08-18T10:24:35;16.73;;;15.32;;
26702;SDS011;14316;51.074;3.704;2022-08-18T10:27:09;23.13;;;21.13;;
26702;SDS011;14316;51.074;3.704;2022-08-18T10:29:55;24.42;;;22.40;;
26702;SDS011;14316;51.074;3.704;2022-08-18T10:32:23;25.77;;;23.48;;
26702;SDS011;14316;51.074;3.704;2022-08-18T10:35:01;21.70;;;19.65;;
26702;SDS011;14316;51.074;3.704;2022-08-18T10:37:41;24.25;;;22.05;;
26702;SDS011;14316;51.074;3.704;2022-08-18T10:50:33;21.35;;;19.60;;
26702;SDS011;14316;51.074;3.704;2022-08-18T10:53:08;19.73;;;17.80;;
26702;SDS011;14316;51.074;3.704;2022-08-18T10:58:39;19.75;;;17.98;;
26702;SDS011;14316;51.074;3.704;2022-08-18T11:04:44;17.23;;;15.93;;
26702;SDS011;14316;51.074;3.704;2022-08-18T11:07:14;17.20;;;15.48;;
26702;SDS011;14316;51.074;3.704;2022-08-18T11:09:44;16.10;;;14.67;;
26702;SDS011;14316;51.074;3.704;2022-08-18T11:12:14;15.95;;;13.50;;
26702;SDS011;14316;51.074;3.704;2022-08-18T11:15:11;16.15;;;14.57;;
26702;SDS011;14316;51.074;3.704;2022-08-18T11:18:00;14.05;;;12.80;;
26702;SDS011;14316;51.074;3.704;2022-08-18T11:20:30;13.30;;;12.20;;
26702;SDS011;14316;51.074;3.704;2022-08-18T11:22:58;14.48;;;13.15;;
26702;SDS011;14316;51.074;3.704;2022-08-18T11:25:31;9.73;;;8.82;;
26702;SDS011;14316;51.074;3.704;2022-08-18T11:28:00;9.57;;;8.73;;
26702;SDS011;14316;51.074;3.704;2022-08-18T11:30:31;11.68;;;9.80;;
26702;SDS011;14316;51.074;3.704;2022-08-18T11:33:01;8.90;;;8.10;;
26702;SDS011;14316;51.074;3.704;2022-08-18T11:35:29;9.20;;;8.40;;
26702;SDS011;14316;51.074;3.704;2022-08-18T11:38:01;12.00;;;10.80;;
26702;SDS011;14316;51.074;3.704;2022-08-18T11:40:36;10.65;;;9.85;;
26702;SDS011;14316;51.074;3.704;2022-08-18T11:43:27;9.30;;;8.52;;
26702;SDS011;14316;51.074;3.704;2022-08-18T11:45:57;8.55;;;7.75;;
26702;SDS011;14316;51.074;3.704;2022-08-18T11:48:35;8.35;;;7.55;;
26702;SDS011;14316;51.074;3.704;2022-08-18T11:51:07;9.10;;;8.20;;
26702;SDS011;14316;51.074;3.704;2022-08-18T11:53:36;8.32;;;7.53;;
26702;SDS011;14316;51.074;3.704;2022-08-18T11:56:04;9.40;;;8.52;;
26702;SDS011;14316;51.074;3.704;2022-08-18T11:58:37;8.93;;;8.02;;
26702;SDS011;14316;51.074;3.704;2022-08-18T12:09:35;7.20;;;6.60;;
26702;SDS011;14316;51.074;3.704;2022-08-18T12:14:51;7.93;;;7.13;;
26702;SDS011;14316;51.074;3.704;2022-08-18T12:17:20;7.03;;;6.32;;
26702;SDS011;14316;51.074;3.704;2022-08-18T12:19:47;7.43;;;6.82;;
26702;SDS011;14316;51.074;3.704;2022-08-18T12:22:17;6.25;;;5.57;;
26702;SDS011;14316;51.074;3.704;2022-08-18T12:24:46;5.90;;;5.40;;
26702;SDS011;14316;51.074;3.704;2022-08-18T12:27:15;6.70;;;6.10;;
26702;SDS011;14316;51.074;3.704;2022-08-18T12:29:42;7.18;;;6.57;;
26702;SDS011;14316;51.074;3.704;2022-08-18T12:32:10;7.10;;;6.50;;
26702;SDS011;14316;51.074;3.704;2022-08-18T12:34:36;7.43;;;6.72;;
26702;SDS011;14316;51.074;3.704;2022-08-18T12:37:03;7.18;;;6.60;;
26702;SDS011;14316;51.074;3.704;2022-08-18T12:39:31;6.63;;;5.50;;
26702;SDS011;14316;51.074;3.704;2022-08-18T12:41:57;7.15;;;6.45;;
26702;SDS011;14316;51.074;3.704;2022-08-18T12:44:26;8.05;;;7.35;;
26702;SDS011;14316;51.074;3.704;2022-08-18T12:46:52;8.15;;;7.47;;
26702;SDS011;14316;51.074;3.704;2022-08-18T12:49:21;7.47;;;6.85;;
26702;SDS011;14316;51.074;3.704;2022-08-18T12:51:48;5.70;;;5.20;;
26702;SDS011;14316;51.074;3.704;2022-08-18T12:54:15;6.65;;;6.05;;
26702;SDS011;14316;51.074;3.704;2022-08-18T12:56:41;6.57;;;6.05;;
26702;SDS011;14316;51.074;3.704;2022-08-18T12:59:10;7.32;;;6.15;;
26702;SDS011;14316;51.074;3.704;2022-08-18T13:01:36;6.90;;;6.30;;
26702;SDS011;14316;51.074;3.704;2022-08-18T13:04:03;5.80;;;5.32;;
26702;SDS011;14316;51.074;3.704;2022-08-18T13:06:31;9.70;;;5.72;;
26702;SDS011;14316;51.074;3.704;2022-08-18T13:08:59;6.38;;;5.75;;
26702;SDS011;14316;51.074;3.704;2022-08-18T13:11:29;6.22;;;5.72;;
26702;SDS011;14316;51.074;3.704;2022-08-18T13:13:54;7.07;;;6.35;;
26702;SDS011;14316;51.074;3.704;2022-08-18T13:16:20;6.80;;;6.30;;
26702;SDS011;14316;51.074;3.704;2022-08-18T13:18:46;6.88;;;6.15;;
26702;SDS011;14316;51.074;3.704;2022-08-18T13:21:13;5.93;;;5.43;;
26702;SDS011;14316;51.074;3.704;2022-08-18T13:23:39;6.85;;;6.25;;
26702;SDS011;14316;51.074;3.704;2022-08-18T13:26:08;8.10;;;7.38;;
26702;SDS011;14316;51.074;3.704;2022-08-18T13:28:43;6.82;;;6.32;;
26702;SDS011;14316;51.074;3.704;2022-08-18T13:31:08;7.38;;;6.68;;
26702;SDS011;14316;51.074;3.704;2022-08-18T13:33:34;7.32;;;6.72;;
26702;SDS011;14316;51.074;3.704;2022-08-18T13:36:00;7.28;;;6.68;;
26702;SDS011;14316;51.074;3.704;2022-08-18T13:38:25;8.00;;;7.20;;
26702;SDS011;14316;51.074;3.704;2022-08-18T13:40:51;8.82;;;7.75;;
26702;SDS011;14316;51.074;3.704;2022-08-18T13:43:20;8.00;;;7.40;;
26702;SDS011;14316;51.074;3.704;2022-08-18T13:45:51;7.72;;;7.03;;
26702;SDS011;14316;51.074;3.704;2022-08-18T13:48:16;7.72;;;7.05;;
26702;SDS011;14316;51.074;3.704;2022-08-18T13:50:43;8.18;;;7.47;;
26702;SDS011;14316;51.074;3.704;2022-08-18T13:53:11;7.78;;;7.13;;
26702;SDS011;14316;51.074;3.704;2022-08-18T13:55:39;8.43;;;7.60;;
26702;SDS011;14316;51.074;3.704;2022-08-18T13:58:05;7.50;;;6.88;;
26702;SDS011;14316;51.074;3.704;2022-08-18T14:00:32;8.13;;;7.32;;
26702;SDS011;14316;51.074;3.704;2022-08-18T14:02:59;8.82;;;7.97;;
26702;SDS011;14316;51.074;3.704;2022-08-18T14:05:25;9.60;;;8.70;;
26702;SDS011;14316;51.074;3.704;2022-08-18T14:07:52;8.40;;;7.60;;
26702;SDS011;14316;51.074;3.704;2022-08-18T14:10:18;8.32;;;7.53;;
26702;SDS011;14316;51.074;3.704;2022-08-18T14:12:44;8.70;;;7.63;;
26702;SDS011;14316;51.074;3.704;2022-08-18T14:15:11;10.25;;;8.10;;
26702;SDS011;14316;51.074;3.704;2022-08-18T14:17:39;9.38;;;8.40;;
26702;SDS011;14316;51.074;3.704;2022-08-18T14:20:06;8.40;;;7.50;;
26702;SDS011;14316;51.074;3.704;2022-08-18T14:22:54;7.88;;;7.07;;
26702;SDS011;14316;51.074;3.704;2022-08-18T14:25:40;7.85;;;7.25;;
26702;SDS011;14316;51.074;3.704;2022-08-18T14:28:24;9.50;;;8.70;;
26702;SDS011;14316;51.074;3.704;2022-08-18T14:30:50;9.30;;;8.50;;
26702;SDS011;14316;51.074;3.704;2022-08-18T14:33:19;8.80;;;7.95;;
26702;SDS011;14316;51.074;3.704;2022-08-18T14:35:46;9.18;;;8.45;;
26702;SDS011;14316;51.074;3.704;2022-08-18T14:38:12;8.85;;;8.15;;
26702;SDS011;14316;51.074;3.704;2022-08-18T14:40:43;9.98;;;9.10;;
26702;SDS011;14316;51.074;3.704;2022-08-18T14:43:13;8.95;;;8.25;;
26702;SDS011;14316;51.074;3.704;2022-08-18T14:45:41;9.18;;;8.23;;
26702;SDS011;14316;51.074;3.704;2022-08-18T14:48:12;9.10;;;8.20;;
26702;SDS011;14316;51.074;3.704;2022-08-18T14:50:44;9.63;;;8.63;;
26702;SDS011;14316;51.074;3.704;2022-08-18T14:53:13;10.40;;;9.13;;
26702;SDS011;14316;51.074;3.704;2022-08-18T14:55:39;9.45;;;8.60;;
26702;SDS011;14316;51.074;3.704;2022-08-18T14:58:05;9.65;;;8.43;;
26702;SDS011;14316;51.074;3.704;2022-08-18T15:00:33;9.30;;;8.23;;
26702;SDS011;14316;51.074;3.704;2022-08-18T15:02:59;8.52;;;7.90;;
26702;SDS011;14316;51.074;3.704;2022-08-18T15:05:26;12.63;;;7.95;;
26702;SDS011;14316;51.074;3.704;2022-08-18T15:07:56;8.30;;;7.60;;
26702;SDS011;14316;51.074;3.704;2022-08-18T15:10:27;7.43;;;6.72;;
26702;SDS011;14316;51.074;3.704;2022-08-18T15:12:53;8.80;;;8.05;;
26702;SDS011;14316;51.074;3.704;2022-08-18T15:15:21;9.95;;;7.57;;
26702;SDS011;14316;51.074;3.704;2022-08-18T15:17:48;11.98;;;9.63;;
26702;SDS011;14316;51.074;3.704;2022-08-18T15:20:14;8.25;;;7.50;;
26702;SDS011;14316;51.074;3.704;2022-08-18T15:22:41;9.25;;;8.45;;
26702;SDS011;14316;51.074;3.704;2022-08-18T15:25:26;8.93;;;8.13;;
26702;SDS011;14316;51.074;3.704;2022-08-18T15:28:12;9.63;;;8.77;;
26702;SDS011;14316;51.074;3.704;2022-08-18T15:30:42;9.25;;;8.45;;
26702;SDS011;14316;51.074;3.704;2022-08-18T15:33:09;10.52;;;9.63;;
26702;SDS011;14316;51.074;3.704;2022-08-18T15:35:38;8.88;;;8.18;;
26702;SDS011;14316;51.074;3.704;2022-08-18T15:38:08;9.43;;;8.55;;
26702;SDS011;14316;51.074;3.704;2022-08-18T15:40:49;10.50;;;9.32;;
26702;SDS011;14316;51.074;3.704;2022-08-18T15:43:18;8.82;;;7.93;;
26702;SDS011;14316;51.074;3.704;2022-08-18T15:45:47;8.75;;;7.95;;
26702;SDS011;14316;51.074;3.704;2022-08-18T15:48:19;9.55;;;8.75;;
26702;SDS011;14316;51.074;3.704;2022-08-18T15:50:47;9.73;;;8.25;;
26702;SDS011;14316;51.074;3.704;2022-08-18T15:53:17;8.68;;;7.97;;
26702;SDS011;14316;51.074;3.704;2022-08-18T15:55:59;9.07;;;8.35;;
26702;SDS011;14316;51.074;3.704;2022-08-18T15:58:25;9.68;;;8.82;;
26702;SDS011;14316;51.074;3.704;2022-08-18T16:01:00;9.05;;;8.35;;
26702;SDS011;14316;51.074;3.704;2022-08-18T16:03:26;9.23;;;8.43;;
26702;SDS011;14316;51.074;3.704;2022-08-18T16:05:53;9.27;;;8.30;;
26702;SDS011;14316;51.074;3.704;2022-08-18T16:08:20;8.43;;;7.63;;
26702;SDS011;14316;51.074;3.704;2022-08-18T16:10:47;9.57;;;8.65;;
26702;SDS011;14316;51.074;3.704;2022-08-18T16:13:16;8.88;;;8.07;;
26702;SDS011;14316;51.074;3.704;2022-08-18T16:15:43;7.60;;;6.80;;
26702;SDS011;14316;51.074;3.704;2022-08-18T16:18:12;7.97;;;7.35;;
26702;SDS011;14316;51.074;3.704;2022-08-18T16:20:39;9.32;;;8.52;;
26702;SDS011;14316;51.074;3.704;2022-08-18T16:23:05;8.13;;;7.43;;
26702;SDS011;14316;51.074;3.704;2022-08-18T16:25:31;8.20;;;7.50;;
26702;SDS011;14316;51.074;3.704;2022-08-18T16:27:57;7.85;;;7.03;;
26702;SDS011;14316;51.074;3.704;2022-08-18T16:30:25;8.40;;;7.60;;
26702;SDS011;14316;51.074;3.704;2022-08-18T16:32:52;10.80;;;7.95;;
26702;SDS011;14316;51.074;3.704;2022-08-18T16:35:18;8.00;;;7.40;;
26702;SDS011;14316;51.074;3.704;2022-08-18T16:37:45;9.18;;;8.27;;
26702;SDS011;14316;51.074;3.704;2022-08-18T16:40:13;8.23;;;7.43;;
26702;SDS011;14316;51.074;3.704;2022-08-18T16:42:40;7.55;;;6.85;;
26702;SDS011;14316;51.074;3.704;2022-08-18T16:45:05;7.57;;;6.85;;
26702;SDS011;14316;51.074;3.704;2022-08-18T16:47:33;7.45;;;6.93;;
26702;SDS011;14316;51.074;3.704;2022-08-18T16:50:09;6.57;;;6.03;;
26702;SDS011;14316;51.074;3.704;2022-08-18T16:52:37;8.95;;;8.15;;
26702;SDS011;14316;51.074;3.704;2022-08-18T16:55:04;8.10;;;7.40;;
26702;SDS011;14316;51.074;3.704;2022-08-18T16:57:31;8.18;;;7.40;;
26702;SDS011;14316;51.074;3.704;2022-08-18T17:00:15;8.80;;;8.10;;
26702;SDS011;14316;51.074;3.704;2022-08-18T17:03:03;9.40;;;8.60;;
26702;SDS011;14316;51.074;3.704;2022-08-18T17:05:53;9.00;;;8.00;;
26702;SDS011;14316;51.074;3.704;2022-08-18T17:08:26;8.52;;;7.70;;
26702;SDS011;14316;51.074;3.704;2022-08-18T17:10:52;8.45;;;7.68;;
26702;SDS011;14316;51.074;3.704;2022-08-18T17:13:18;6.88;;;6.38;;
26702;SDS011;14316;51.074;3.704;2022-08-18T17:15:48;7.57;;;6.95;;
26702;SDS011;14316;51.074;3.704;2022-08-18T17:18:14;7.82;;;7.15;;
26702;SDS011;14316;51.074;3.704;2022-08-18T17:20:40;8.30;;;7.60;;
26702;SDS011;14316;51.074;3.704;2022-08-18T17:23:06;7.82;;;7.15;;
26702;SDS011;14316;51.074;3.704;2022-08-18T17:25:32;7.65;;;6.95;;
26702;SDS011;14316;51.074;3.704;2022-08-18T17:27:59;9.20;;;8.05;;
26702;SDS011;14316;51.074;3.704;2022-08-18T17:30:26;8.52;;;7.90;;
26702;SDS011;14316;51.074;3.704;2022-08-18T17:33:04;8.60;;;7.90;;